This is the latest recevied weather packets stored in our database for station/object DB0FN-10. If no packets are shown the sender has not sent any weather packets the latest 10 day(s).
| Time | Temp. | Humidity | Pressure | Rain* | Wind** | Luminosity | Snow |
|---|---|---|---|---|---|---|---|
| 1787440599 | 19.44° C | 49% | 1025.8 hPa | - | - | - | - |
| 1787439699 | 19.44° C | 49% | 1025.8 hPa | - | - | - | - |
| 1787438799 | 19.44° C | 50% | 1025.8 hPa | - | - | - | - |
| 1787437899 | 20° C | 50% | 1025.9 hPa | - | - | - | - |
| 1787436999 | 19.44° C | 51% | 1025.9 hPa | - | - | - | - |
| 1787436099 | 19.44° C | 51% | 1025.9 hPa | - | - | - | - |
| 1787435199 | 20° C | 50% | 1025.8 hPa | - | - | - | - |
| 1787434299 | 20° C | 48% | 1025.8 hPa | - | - | - | - |
| 1787433399 | 20° C | 50% | 1025.9 hPa | - | - | - | - |
| 1787432499 | 20.56° C | 48% | 1025.8 hPa | - | - | - | - |
| 1787431598 | 20.56° C | 48% | 1025.8 hPa | - | - | - | - |
| 1787430698 | 20.56° C | 50% | 1025.8 hPa | - | - | - | - |
| 1787429798 | 22.22° C | 44% | 1025.6 hPa | - | - | - | - |
| 1787428898 | 22.22° C | 43% | 1025.7 hPa | - | - | - | - |
| 1787427998 | 21.67° C | 45% | 1025.6 hPa | - | - | - | - |
| 1787427098 | 21.67° C | 44% | 1025.5 hPa | - | - | - | - |
| 1787426198 | 22.22° C | 43% | 1025.4 hPa | - | - | - | - |
| 1787425298 | 22.78° C | 41% | 1025.2 hPa | - | - | - | - |
| 1787424398 | 22.78° C | 40% | 1025 hPa | - | - | - | - |
| 1787423498 | 22.78° C | 41% | 1024.9 hPa | - | - | - | - |
| 1787422598 | 22.78° C | 43% | 1024.8 hPa | - | - | - | - |
| 1787421698 | 22.22° C | 42% | 1024.7 hPa | - | - | - | - |
| 1787420797 | 23.89° C | 37% | 1024.7 hPa | - | - | - | - |
| 1787419897 | 23.33° C | 38% | 1024.6 hPa | - | - | - | - |
| 1787418997 | 23.33° C | 39% | 1024.5 hPa | - | - | - | - |
* Rain since midnight (hover to see other rain measurements)
** Current wind speed in m/s (hover to see current wind gust speed)